M I D A S
Marine Information and Data Acquisition System
Tripno 778 of the Zeeleeuw from 2004-04-20 06:56:50 to 2004-04-20 12:07:06
Back to CruiseResearch ActivitiesStationsMapUnderway DataData graphs

EquipmentUnitsComments
TimeDGPSUTC
LatitudeDGPSDM.mWGS84
LongitudeDGPSDM.mWGS84
SpeedMeteo Stationm/sRelative wind speed
DirectionMeteo StationdegRelative wind direction
TemperatureMeteo Stationdeg CelciusAir temperature
PressureMeteo StationPaAtmospheric pressure
HumidityMeteo Station%Relative humidity
Missing or incorrect values are displayed as -999
Metereological data collected by the RV Zeeleeuw from 2004-04-20 06:56:50 to 2004-04-20 12:07:06
                                                                                    Next 1000 lines
Time Latitude Longitude Speed Direction Temperature Pressure Humidity
2004-04-20 06:56:59 51°13.669 2°55.765 3.9 135 5.7 100280 88
2004-04-20 06:57:04 51°13.669 2°55.764 3.2 140 5.7 100280 88
2004-04-20 06:57:09 51°13.67 2°55.764 2.6 137 5.7 100280 88
2004-04-20 06:57:14 51°13.671 2°55.764 2.7 123 5.7 100270 88
2004-04-20 06:57:18 51°13.672 2°55.765 2.5 142 5.7 100270 88
2004-04-20 06:57:23 51°13.674 2°55.767 2.4 140 5.7 100280 87
2004-04-20 06:57:29 51°13.676 2°55.769 2.3 124 5.7 100280 87
2004-04-20 06:57:33 51°13.678 2°55.771 1.8 124 5.7 100270 88
2004-04-20 06:57:38 51°13.68 2°55.772 1.6 134 5.7 100270 88
2004-04-20 06:57:43 51°13.682 2°55.773 1.9 147 5.7 100270 88
2004-04-20 06:57:49 51°13.682 2°55.773 2.6 162 5.7 100270 88
2004-04-20 06:57:53 51°13.683 2°55.773 2.7 162 5.7 100280 88
2004-04-20 06:57:59 51°13.682 2°55.772 3.9 164 5.7 100280 88
2004-04-20 06:58:04 51°13.681 2°55.771 3.5 165 5.8 100280 88
2004-04-20 06:58:09 51°13.68 2°55.77 3.5 169 5.8 100280 88
2004-04-20 06:58:14 51°13.679 2°55.769 3.3 174 5.7 100280 88
2004-04-20 06:58:19 51°13.68 2°55.769 2.9 171 5.7 100280 88
2004-04-20 06:58:24 51°13.682 2°55.769 2.6 187 5.8 100280 87
2004-04-20 06:58:29 51°13.686 2°55.768 2.4 226 5.8 100280 87
2004-04-20 06:58:34 51°13.689 2°55.767 2 226 5.7 100280 87
2004-04-20 06:58:38 51°13.692 2°55.765 1.4 259 5.7 100280 87
2004-04-20 06:58:43 51°13.695 2°55.763 1.4 248 5.7 100280 87
2004-04-20 06:58:49 51°13.7 2°55.76 2.9 240 5.7 100280 87
2004-04-20 06:58:54 51°13.704 2°55.756 2.6 238 5.7 100280 87
2004-04-20 06:58:58 51°13.708 2°55.752 1.7 252 5.7 100280 87
2004-04-20 06:59:04 51°13.713 2°55.745 1.7 252 5.8 100280 87
2004-04-20 06:59:09 51°13.719 2°55.739 1.1 251 5.8 100280 87
2004-04-20 06:59:14 51°13.724 2°55.733 1.2 251 5.8 100280 87
2004-04-20 06:59:18 51°13.729 2°55.728 1 252 5.8 100280 87
2004-04-20 06:59:23 51°13.735 2°55.722 0.9 252 5.8 100280 87
2004-04-20 06:59:29 51°13.743 2°55.713 0.9 264 5.8 100280 87
2004-04-20 06:59:33 51°13.749 2°55.708 1 300 5.8 100280 87
2004-04-20 06:59:39 51°13.757 2°55.699 0.8 302 5.8 100280 87
2004-04-20 06:59:44 51°13.765 2°55.692 0.6 308 5.8 100280 87
2004-04-20 06:59:49 51°13.772 2°55.685 0.7 338 5.8 100280 87
2004-04-20 06:59:53 51°13.779 2°55.68 0.8 10 5.7 100280 87
2004-04-20 06:59:58 51°13.787 2°55.673 1.2 34 5.7 100280 87
2004-04-20 07:00:04 51°13.797 2°55.665 1.1 34 5.8 100280 87
2004-04-20 07:00:09 51°13.806 2°55.659 1.3 9 5.8 100280 87
2004-04-20 07:00:14 51°13.815 2°55.652 1.9 337 5.8 100280 87
2004-04-20 07:00:19 51°13.824 2°55.645 2.2 345 5.8 100280 87
2004-04-20 07:00:24 51°13.833 2°55.639 2.2 342 5.8 100280 87
2004-04-20 07:00:29 51°13.843 2°55.632 1.9 5 5.8 100280 87
2004-04-20 07:00:33 51°13.851 2°55.627 1.6 8 5.8 100280 87
2004-04-20 07:00:43 51°13.87 2°55.614 1.2 318 5.8 100280 87
2004-04-20 07:00:46 51°13.875 2°55.611 0.9 318 5.8 100280 87
2004-04-20 07:00:51 51°13.884 2°55.604 0.6 318 5.8 100280 87
2004-04-20 07:00:57 51°13.895 2°55.597 1.2 324 5.8 100280 87
2004-04-20 07:01:02 51°13.903 2°55.591 1.8 331 5.8 100280 87
2004-04-20 07:01:07 51°13.911 2°55.586 1.5 349 5.8 100280 87
2004-04-20 07:01:12 51°13.919 2°55.58 1.3 360 5.9 100280 87
2004-04-20 07:01:17 51°13.927 2°55.575 1.7 5 5.9 100280 87
2004-04-20 07:01:22 51°13.935 2°55.57 1 8 5.9 100280 88
2004-04-20 07:01:26 51°13.942 2°55.566 0.7 6 5.9 100280 88
2004-04-20 07:01:32 51°13.951 2°55.56 0.7 7 5.9 100280 88
2004-04-20 07:01:37 51°13.959 2°55.555 1 347 5.9 100280 88
2004-04-20 07:01:42 51°13.966 2°55.551 1.2 348 5.9 100280 88
2004-04-20 07:01:46 51°13.972 2°55.547 0.9 346 5.9 100280 88
2004-04-20 07:01:50 51°13.978 2°55.544 0.7 347 5.9 100280 88
2004-04-20 07:01:57 51°13.989 2°55.538 0.5 347 5.9 100280 88
2004-04-20 07:02:01 51°13.995 2°55.535 0.4 346 6 100280 88
2004-04-20 07:02:06 51°14.002 2°55.531 0.7 331 6 100280 88
2004-04-20 07:02:12 51°14.011 2°55.526 0.8 326 6 100280 88
2004-04-20 07:02:17 51°14.019 2°55.521 0.7 326 6 100280 88
2004-04-20 07:02:22 51°14.026 2°55.517 0.8 328 6 100280 88
2004-04-20 07:02:26 51°14.032 2°55.513 1.4 337 6 100280 88
2004-04-20 07:02:32 51°14.041 2°55.507 1.8 338 6 100280 88
2004-04-20 07:02:37 51°14.049 2°55.502 1.5 360 6 100280 88
2004-04-20 07:02:42 51°14.057 2°55.497 1.4 353 6 100280 88
2004-04-20 07:02:46 51°14.063 2°55.493 1.4 332 6 100280 88
2004-04-20 07:02:52 51°14.073 2°55.486 1.3 333 6.1 100280 88
2004-04-20 07:02:57 51°14.081 2°55.48 2.2 322 6.1 100280 88
2004-04-20 07:03:02 51°14.089 2°55.474 2 341 6.1 100280 88
2004-04-20 07:03:06 51°14.096 2°55.469 2.6 347 6.1 100280 88
2004-04-20 07:03:12 51°14.106 2°55.46 2.7 232 6.1 100280 88
2004-04-20 07:03:17 51°14.114 2°55.453 1.9 305 6.1 100280 88
2004-04-20 07:03:21 51°14.121 2°55.447 2.2 307 6.1 100280 88
2004-04-20 07:03:27 51°14.132 2°55.437 2.6 309 6.1 100280 88
2004-04-20 07:03:32 51°14.141 2°55.428 2.3 324 6.1 100280 88
2004-04-20 07:03:37 51°14.151 2°55.418 1.9 328 6.1 100280 88
2004-04-20 07:03:42 51°14.161 2°55.407 2.7 324 6.1 100280 88
2004-04-20 07:03:46 51°14.17 2°55.399 2.3 316 6.1 100280 88
2004-04-20 07:03:52 51°14.182 2°55.384 2.3 331 6.1 100290 88
2004-04-20 07:03:57 51°14.193 2°55.371 3.3 350 6.1 100290 88
2004-04-20 07:04:02 51°14.204 2°55.357 2.7 347 6.1 100280 88
2004-04-20 07:04:06 51°14.212 2°55.346 3.9 338 6.1 100280 88
2004-04-20 07:04:12 51°14.226 2°55.328 3.7 337 6.1 100290 87
2004-04-20 07:04:17 51°14.237 2°55.312 3.3 343 6.1 100290 87
2004-04-20 07:04:21 51°14.245 2°55.299 4.3 340 6.1 100280 87
2004-04-20 07:04:27 51°14.258 2°55.278 3.6 342 6.1 100280 87
2004-04-20 07:04:32 51°14.269 2°55.261 4.4 355 6.1 100280 87
2004-04-20 07:04:37 51°14.279 2°55.242 4.9 353 6.1 100280 87
2004-04-20 07:04:42 51°14.289 2°55.223 5.1 338 6.2 100280 87
2004-04-20 07:04:46 51°14.297 2°55.207 4 352 6.2 100280 87
2004-04-20 07:04:52 51°14.308 2°55.184 4.8 336 6.2 100280 87
2004-04-20 07:04:57 51°14.318 2°55.163 5.4 332 6.2 100280 87
2004-04-20 07:05:02 51°14.327 2°55.142 6.2 347 6.2 100280 87
2004-04-20 07:05:06 51°14.334 2°55.125 4.4 337 6.2 100280 87
2004-04-20 07:05:12 51°14.346 2°55.1 4.1 338 6.2 100280 87
2004-04-20 07:05:16 51°14.353 2°55.083 5.1 357 6.2 100280 87
2004-04-20 07:05:21 51°14.362 2°55.061 5.6 353 6.2 100280 87
2004-04-20 07:05:27 51°14.372 2°55.034 6.2 338 6.2 100280 87
2004-04-20 07:05:31 51°14.379 2°55.014 6.4 341 6.2 100270 87
2004-04-20 07:05:37 51°14.388 2°54.983 6.5 339 6.2 100270 87
2004-04-20 07:05:42 51°14.394 2°54.957 7.2 330 6.2 100280 87
2004-04-20 07:05:46 51°14.4 2°54.936 7.2 336 6.2 100280 87
2004-04-20 07:05:52 51°14.408 2°54.903 7.7 333 6.2 100280 87
2004-04-20 07:05:57 51°14.414 2°54.875 7.4 331 6.2 100280 87
2004-04-20 07:06:02 51°14.419 2°54.846 7.9 333 6.3 100270 87
2004-04-20 07:06:06 51°14.422 2°54.822 8.1 339 6.3 100270 87
2004-04-20 07:06:12 51°14.424 2°54.786 8.5 342 6.3 100270 87
2004-04-20 07:06:17 51°14.425 2°54.755 8.6 335 6.3 100270 87
2004-04-20 07:06:21 51°14.426 2°54.731 9 339 6.3 100270 87
2004-04-20 07:06:26 51°14.426 2°54.7 10.1 337 6.3 100270 87
2004-04-20 07:06:32 51°14.424 2°54.663 9.1 336 6.3 100260 87
2004-04-20 07:06:37 51°14.421 2°54.632 10.5 337 6.3 100260 87
2004-04-20 07:06:42 51°14.418 2°54.601 10.6 338 6.3 100260 87
2004-04-20 07:06:46 51°14.413 2°54.577 10.9 339 6.3 100260 87
2004-04-20 07:06:52 51°14.406 2°54.541 10.4 336 6.3 100260 87
2004-04-20 07:06:57 51°14.399 2°54.512 10.1 335 6.3 100260 87
2004-04-20 07:07:01 51°14.394 2°54.488 9.9 339 6.3 100260 86
2004-04-20 07:07:07 51°14.386 2°54.453 9.7 340 6.3 100260 86
2004-04-20 07:07:11 51°14.38 2°54.43 9.5 342 6.3 100260 86
2004-04-20 07:07:17 51°14.372 2°54.395 9.7 338 6.3 100260 86
2004-04-20 07:07:22 51°14.364 2°54.367 9.8 338 6.3 100260 86
2004-04-20 07:07:27 51°14.355 2°54.339 9.6 338 6.3 100260 86
2004-04-20 07:07:32 51°14.346 2°54.312 9.8 339 6.3 100260 86
2004-04-20 07:07:37 51°14.336 2°54.285 10 338 6.3 100260 86
2004-04-20 07:07:41 51°14.328 2°54.264 9.5 342 6.3 100260 86
2004-04-20 07:07:46 51°14.318 2°54.238 9.8 346 6.3 100260 86
2004-04-20 07:07:51 51°14.307 2°54.212 10.5 344 6.3 100260 86
2004-04-20 07:07:57 51°14.295 2°54.182 10.3 345 6.3 100260 86
2004-04-20 07:08:02 51°14.284 2°54.156 9.9 345 6.3 100260 86
2004-04-20 07:08:06 51°14.275 2°54.136 10.1 344 6.3 100260 86
2004-04-20 07:08:11 51°14.264 2°54.11 10 344 6.3 100260 86
2004-04-20 07:08:17 51°14.252 2°54.079 10.1 340 6.3 100260 86
2004-04-20 07:08:22 51°14.242 2°54.053 9.9 341 6.3 100260 86
2004-04-20 07:08:26 51°14.234 2°54.031 9.6 340 6.3 100260 86
2004-04-20 07:08:32 51°14.223 2°53.999 9.4 340 6.3 100260 86
2004-04-20 07:08:37 51°14.214 2°53.972 9.9 337 6.3 100260 86
2004-04-20 07:08:42 51°14.206 2°53.944 9.3 340 6.3 100260 86
2004-04-20 07:08:46 51°14.199 2°53.922 9.3 339 6.3 100260 86
2004-04-20 07:08:52 51°14.189 2°53.889 9.8 344 6.3 100260 86
2004-04-20 07:08:57 51°14.18 2°53.862 10.1 340 6.3 100260 86
2004-04-20 07:09:02 51°14.171 2°53.835 9.6 340 6.3 100270 86
2004-04-20 07:09:07 51°14.162 2°53.808 9.7 338 6.3 100270 86
2004-04-20 07:09:12 51°14.153 2°53.781 9.7 343 6.3 100260 86
2004-04-20 07:09:17 51°14.143 2°53.754 10 342 6.3 100260 86
2004-04-20 07:09:22 51°14.133 2°53.727 9.4 342 6.3 100260 86
2004-04-20 07:09:26 51°14.125 2°53.706 9.6 343 6.3 100260 86
2004-04-20 07:09:32 51°14.114 2°53.673 9.4 341 6.3 100270 86
2004-04-20 07:09:37 51°14.104 2°53.646 9.8 341 6.3 100270 86
2004-04-20 07:09:42 51°14.095 2°53.619 9.4 345 6.3 100260 86
2004-04-20 07:09:47 51°14.086 2°53.591 10 341 6.3 100260 86
2004-04-20 07:09:51 51°14.079 2°53.569 9.5 339 6.2 100270 86
2004-04-20 07:09:57 51°14.069 2°53.535 9.3 341 6.2 100270 86
2004-04-20 07:10:02 51°14.061 2°53.506 9.6 337 6.3 100260 86
2004-04-20 07:10:07 51°14.053 2°53.478 9.4 341 6.3 100260 86
2004-04-20 07:10:12 51°14.045 2°53.449 9.5 338 6.3 100270 86
2004-04-20 07:10:17 51°14.037 2°53.42 9.7 335 6.3 100270 86
2004-04-20 07:10:21 51°14.031 2°53.397 9.6 337 6.2 100270 86
2004-04-20 07:10:27 51°14.021 2°53.364 9.6 337 6.2 100270 86
2004-04-20 07:10:32 51°14.012 2°53.335 9.9 338 6.2 100260 86
2004-04-20 07:10:37 51°14.003 2°53.307 9.6 340 6.2 100260 86
2004-04-20 07:10:42 51°13.994 2°53.279 10 339 6.2 100260 86
2004-04-20 07:10:46 51°13.987 2°53.256 10.3 341 6.2 100260 86
2004-04-20 07:10:52 51°13.975 2°53.223 10.1 344 6.2 100260 86
2004-04-20 07:10:56 51°13.968 2°53.201 10 342 6.2 100260 86
2004-04-20 07:11:02 51°13.957 2°53.166 10.1 341 6.2 100260 86
2004-04-20 07:11:06 51°13.95 2°53.143 10 343 6.2 100260 86
2004-04-20 07:11:11 51°13.941 2°53.115 9.5 340 6.2 100270 86
2004-04-20 07:11:17 51°13.931 2°53.08 9.8 343 6.2 100270 86
2004-04-20 07:11:22 51°13.923 2°53.05 9.3 340 6.2 100260 86
2004-04-20 07:11:26 51°13.917 2°53.027 9.4 339 6.2 100260 86
2004-04-20 07:11:32 51°13.908 2°52.991 9.8 338 6.2 100270 86
2004-04-20 07:11:37 51°13.901 2°52.96 10 336 6.2 100270 86
2004-04-20 07:11:42 51°13.894 2°52.93 9.4 337 6.2 100270 86
2004-04-20 07:11:46 51°13.89 2°52.905 9.4 336 6.2 100270 86
2004-04-20 07:11:51 51°13.884 2°52.874 9.7 335 6.2 100270 86
2004-04-20 07:11:57 51°13.877 2°52.837 9.6 339 6.2 100270 86
2004-04-20 07:12:01 51°13.872 2°52.813 9.4 337 6.2 100270 86
2004-04-20 07:12:07 51°13.862 2°52.777 10.1 338 6.2 100270 86
2004-04-20 07:12:11 51°13.854 2°52.754 9.9 342 6.2 100270 86
2004-04-20 07:12:17 51°13.843 2°52.719 10.2 341 6.2 100270 86
2004-04-20 07:12:22 51°13.832 2°52.691 9.9 342 6.2 100270 86
2004-04-20 07:12:26 51°13.824 2°52.669 9.4 342 6.2 100270 86
2004-04-20 07:12:32 51°13.812 2°52.635 9.6 343 6.2 100270 86
2004-04-20 07:12:37 51°13.801 2°52.607 10.4 345 6.2 100270 86
2004-04-20 07:12:42 51°13.791 2°52.579 9.8 347 6.2 100260 86
2004-04-20 07:12:47 51°13.78 2°52.551 9.3 344 6.2 100260 86
2004-04-20 07:12:51 51°13.771 2°52.529 9.9 345 6.2 100260 86
2004-04-20 07:12:57 51°13.758 2°52.496 9.9 346 6.2 100260 86
2004-04-20 07:13:02 51°13.747 2°52.468 10.5 348 6.2 100270 86
2004-04-20 07:13:06 51°13.738 2°52.446 10.4 347 6.2 100270 86
2004-04-20 07:13:12 51°13.725 2°52.413 10.4 344 6.2 100270 86
2004-04-20 07:13:17 51°13.714 2°52.384 10.3 343 6.2 100270 86
2004-04-20 07:13:22 51°13.704 2°52.356 9.8 343 6.2 100260 86
2004-04-20 07:13:26 51°13.696 2°52.333 9.5 342 6.2 100260 86
2004-04-20 07:13:32 51°13.684 2°52.298 9.8 344 6.2 100270 86
2004-04-20 07:13:37 51°13.675 2°52.269 9.7 343 6.2 100270 86
2004-04-20 07:13:42 51°13.665 2°52.24 9.3 347 6.2 100260 86
2004-04-20 07:13:47 51°13.656 2°52.211 10.2 345 6.2 100260 86
2004-04-20 07:13:52 51°13.646 2°52.181 10.8 344 6.2 100270 86
2004-04-20 07:13:57 51°13.636 2°52.152 10.1 345 6.2 100270 86
2004-04-20 07:14:02 51°13.626 2°52.124 10.7 342 6.2 100270 86
2004-04-20 07:14:06 51°13.618 2°52.101 11 342 6.2 100270 86
2004-04-20 07:14:12 51°13.605 2°52.067 11 345 6.2 100270 86
2004-04-20 07:14:17 51°13.594 2°52.04 10.9 344 6.2 100270 86
2004-04-20 07:14:21 51°13.585 2°52.017 10.7 343 6.2 100270 86
2004-04-20 07:14:27 51°13.571 2°51.984 10.5 344 6.2 100270 86
2004-04-20 07:14:32 51°13.56 2°51.957 10.5 342 6.2 100260 86
2004-04-20 07:14:37 51°13.548 2°51.929 10.2 346 6.2 100260 86
2004-04-20 07:14:41 51°13.539 2°51.907 10.3 342 6.2 100260 86
2004-04-20 07:14:46 51°13.529 2°51.879 10.6 341 6.2 100260 86
2004-04-20 07:14:51 51°13.518 2°51.851 9.9 339 6.2 100260 86
2004-04-20 07:14:57 51°13.506 2°51.816 10.6 339 6.2 100260 86
2004-04-20 07:15:02 51°13.495 2°51.787 10.4 339 6.2 100270 86
2004-04-20 07:15:06 51°13.488 2°51.764 9.7 339 6.2 100270 86
2004-04-20 07:15:11 51°13.478 2°51.735 10.2 342 6.2 100260 86
2004-04-20 07:15:17 51°13.467 2°51.699 10.2 338 6.2 100260 86
2004-04-20 07:15:22 51°13.456 2°51.671 9.8 338 6.2 100260 86
2004-04-20 07:15:26 51°13.448 2°51.648 9.4 339 6.2 100260 86
2004-04-20 07:15:31 51°13.437 2°51.62 10.2 339 6.2 100260 86
2004-04-20 07:15:37 51°13.424 2°51.586 9.2 338 6.2 100260 86
2004-04-20 07:15:42 51°13.413 2°51.558 9.5 341 6.2 100260 86
2004-04-20 07:15:47 51°13.402 2°51.529 9.5 343 6.2 100260 86
2004-04-20 07:15:52 51°13.391 2°51.501 9.6 343 6.2 100260 86
2004-04-20 07:15:57 51°13.38 2°51.473 10.3 343 6.2 100260 86
2004-04-20 07:16:01 51°13.372 2°51.45 10.4 343 6.2 100260 86
2004-04-20 07:16:07 51°13.359 2°51.416 10.3 343 6.2 100260 86
2004-04-20 07:16:12 51°13.349 2°51.387 9.7 338 6.2 100270 87
2004-04-20 07:16:16 51°13.341 2°51.365 10.1 338 6.2 100270 87
2004-04-20 07:16:22 51°13.329 2°51.33 9.8 341 6.2 100270 87
2004-04-20 07:16:27 51°13.319 2°51.301 10.4 342 6.2 100270 87
2004-04-20 07:16:31 51°13.311 2°51.277 10.8 344 6.2 100270 87
2004-04-20 07:16:37 51°13.298 2°51.243 10.7 340 6.2 100270 87
2004-04-20 07:16:42 51°13.288 2°51.214 11 337 6.2 100260 87
2004-04-20 07:16:46 51°13.279 2°51.192 10.2 339 6.2 100260 87
2004-04-20 07:16:52 51°13.266 2°51.157 10.1 341 6.2 100260 87
2004-04-20 07:16:57 51°13.255 2°51.129 10.6 342 6.2 100260 87
2004-04-20 07:17:01 51°13.246 2°51.107 10.3 347 6.2 100260 87
2004-04-20 07:17:07 51°13.233 2°51.073 10.7 343 6.2 100260 87
2004-04-20 07:17:12 51°13.222 2°51.045 10.9 340 6.2 100260 87
2004-04-20 07:17:17 51°13.211 2°51.017 10.2 341 6.2 100260 87
2004-04-20 07:17:22 51°13.2 2°50.988 10.3 339 6.2 100260 87
2004-04-20 07:17:26 51°13.192 2°50.965 10.8 341 6.2 100260 87
2004-04-20 07:17:31 51°13.182 2°50.936 10.1 340 6.2 100270 87
2004-04-20 07:17:37 51°13.17 2°50.901 10.1 338 6.2 100270 87
2004-04-20 07:17:42 51°13.16 2°50.872 9.8 336 6.2 100260 87
2004-04-20 07:17:47 51°13.15 2°50.843 10.2 335 6.2 100260 87
2004-04-20 07:17:52 51°13.14 2°50.813 9.8 335 6.2 100260 87
2004-04-20 07:17:57 51°13.131 2°50.784 10.1 337 6.2 100260 87
2004-04-20 07:18:02 51°13.12 2°50.755 10.5 343 6.2 100270 87
2004-04-20 07:18:06 51°13.112 2°50.732 10.7 342 6.2 100270 87
2004-04-20 07:18:12 51°13.099 2°50.697 10.4 342 6.2 100260 87
2004-04-20 07:18:17 51°13.089 2°50.669 10.3 343 6.2 100260 87
2004-04-20 07:18:22 51°13.078 2°50.641 9.8 343 6.2 100260 87
2004-04-20 07:18:27 51°13.067 2°50.612 9.9 341 6.2 100260 87
2004-04-20 07:18:32 51°13.056 2°50.584 10.6 342 6.2 100270 87
2004-04-20 07:18:37 51°13.046 2°50.555 9.7 339 6.2 100270 87
2004-04-20 07:18:41 51°13.037 2°50.533 9.9 340 6.2 100260 87
2004-04-20 07:18:46 51°13.027 2°50.504 10.2 342 6.2 100260 87
2004-04-20 07:18:52 51°13.014 2°50.47 10.4 342 6.2 100260 87
2004-04-20 07:18:57 51°13.004 2°50.441 10 340 6.2 100260 87
2004-04-20 07:19:02 51°12.994 2°50.412 10.3 342 6.2 100270 87
2004-04-20 07:19:06 51°12.986 2°50.388 9.8 337 6.2 100270 87
2004-04-20 07:19:12 51°12.974 2°50.353 9.6 344 6.2 100270 87
2004-04-20 07:19:17 51°12.964 2°50.324 9.8 341 6.2 100270 87
2004-04-20 07:19:21 51°12.956 2°50.301 10.4 343 6.2 100260 87
2004-04-20 07:19:27 51°12.943 2°50.267 10.3 341 6.2 100260 87
2004-04-20 07:19:32 51°12.932 2°50.238 10.2 342 6.2 100270 87
2004-04-20 07:19:37 51°12.921 2°50.21 9.8 341 6.2 100270 87
2004-04-20 07:19:42 51°12.911 2°50.181 10.3 342 6.2 100270 87
2004-04-20 07:19:46 51°12.902 2°50.159 9.9 339 6.2 100270 87
2004-04-20 07:19:51 51°12.891 2°50.13 10.2 343 6.2 100270 87
2004-04-20 07:19:57 51°12.877 2°50.097 10.6 343 6.2 100270 87
2004-04-20 07:20:02 51°12.867 2°50.068 10.2 343 6.2 100270 87
2004-04-20 07:20:07 51°12.856 2°50.039 9.8 342 6.2 100270 87
2004-04-20 07:20:12 51°12.846 2°50.01 9.7 344 6.3 100270 87
2004-04-20 07:20:17 51°12.835 2°49.982 9.6 341 6.3 100270 87
2004-04-20 07:20:22 51°12.825 2°49.953 10.5 343 6.3 100270 87
2004-04-20 07:20:26 51°12.816 2°49.93 10.5 344 6.3 100270 87
2004-04-20 07:20:31 51°12.806 2°49.901 10.5 342 6.3 100270 87
2004-04-20 07:20:37 51°12.793 2°49.866 10.2 344 6.3 100270 87
2004-04-20 07:20:42 51°12.783 2°49.838 10.4 347 6.3 100270 87
2004-04-20 07:20:47 51°12.772 2°49.809 10.2 344 6.3 100270 87
2004-04-20 07:20:52 51°12.761 2°49.78 10.7 344 6.3 100270 87
2004-04-20 07:20:57 51°12.75 2°49.752 10.2 346 6.3 100270 87
2004-04-20 07:21:02 51°12.74 2°49.723 10.4 343 6.3 100270 87
2004-04-20 07:21:06 51°12.731 2°49.7 10.1 344 6.3 100270 87
2004-04-20 07:21:12 51°12.718 2°49.665 10.1 344 6.3 100270 87
2004-04-20 07:21:17 51°12.708 2°49.636 9.9 342 6.3 100270 87
2004-04-20 07:21:22 51°12.698 2°49.607 10.3 340 6.3 100270 87
2004-04-20 07:21:27 51°12.688 2°49.578 9.5 342 6.3 100270 87
2004-04-20 07:21:32 51°12.678 2°49.548 9.5 341 6.3 100270 87
2004-04-20 07:21:37 51°12.668 2°49.519 9.9 342 6.3 100270 87
2004-04-20 07:21:41 51°12.66 2°49.495 9.3 343 6.3 100270 87
2004-04-20 07:21:47 51°12.647 2°49.46 10.1 341 6.3 100270 87
2004-04-20 07:21:52 51°12.636 2°49.431 10.1 342 6.3 100270 87
2004-04-20 07:21:57 51°12.626 2°49.403 9.9 344 6.3 100270 87
2004-04-20 07:22:01 51°12.617 2°49.38 9.8 346 6.3 100270 87
2004-04-20 07:22:07 51°12.604 2°49.346 10 348 6.3 100270 87
2004-04-20 07:22:12 51°12.593 2°49.317 9.9 345 6.3 100270 87
2004-04-20 07:22:17 51°12.582 2°49.288 10.4 346 6.3 100270 87
2004-04-20 07:22:22 51°12.571 2°49.259 10.1 343 6.3 100270 87
2004-04-20 07:22:26 51°12.563 2°49.236 9.9 343 6.3 100270 87
2004-04-20 07:22:31 51°12.552 2°49.207 9.9 347 6.3 100270 87
2004-04-20 07:22:37 51°12.54 2°49.172 9.9 348 6.3 100270 87
2004-04-20 07:22:41 51°12.532 2°49.149 9.8 345 6.3 100270 87
2004-04-20 07:22:47 51°12.52 2°49.113 9.3 344 6.3 100270 87
2004-04-20 07:22:52 51°12.51 2°49.084 9.6 340 6.3 100270 87
2004-04-20 07:22:57 51°12.499 2°49.055 10.3 349 6.3 100270 87
2004-04-20 07:23:02 51°12.489 2°49.026 9.8 349 6.3 100270 87
2004-04-20 07:23:06 51°12.481 2°49.002 10.1 343 6.3 100270 87
2004-04-20 07:23:11 51°12.47 2°48.974 9.8 347 6.4 100270 87
2004-04-20 07:23:17 51°12.457 2°48.939 9.7 346 6.4 100270 87
2004-04-20 07:23:21 51°12.448 2°48.917 10 349 6.4 100270 87
2004-04-20 07:23:27 51°12.435 2°48.882 10.2 346 6.4 100270 87
2004-04-20 07:23:32 51°12.424 2°48.854 10.3 349 6.4 100280 87
2004-04-20 07:23:37 51°12.413 2°48.825 10.2 347 6.4 100280 87
2004-04-20 07:23:42 51°12.403 2°48.796 9.8 348 6.4 100280 87
2004-04-20 07:23:46 51°12.395 2°48.773 9.9 348 6.4 100280 87
2004-04-20 07:23:51 51°12.384 2°48.744 9.7 349 6.4 100280 87
2004-04-20 07:23:57 51°12.371 2°48.71 10 346 6.4 100280 87
2004-04-20 07:24:02 51°12.361 2°48.681 9.6 346 6.4 100270 87
2004-04-20 07:24:06 51°12.352 2°48.658 10.1 349 6.4 100270 87
2004-04-20 07:24:12 51°12.339 2°48.624 10.4 349 6.4 100280 87
2004-04-20 07:24:17 51°12.329 2°48.595 10.5 347 6.4 100280 87
2004-04-20 07:24:21 51°12.32 2°48.572 10 346 6.4 100280 87
2004-04-20 07:24:27 51°12.307 2°48.538 10 349 6.4 100280 87
2004-04-20 07:24:31 51°12.299 2°48.515 10.4 351 6.4 100280 87
2004-04-20 07:24:37 51°12.287 2°48.479 10 348 6.4 100280 87
2004-04-20 07:24:42 51°12.278 2°48.45 10 347 6.4 100270 87
2004-04-20 07:24:46 51°12.27 2°48.426 9.9 346 6.4 100270 87
2004-04-20 07:24:51 51°12.262 2°48.395 9.5 345 6.4 100280 87
2004-04-20 07:24:57 51°12.251 2°48.359 9.6 346 6.4 100280 87
2004-04-20 07:25:02 51°12.243 2°48.328 10.3 346 6.4 100280 87
2004-04-20 07:25:07 51°12.234 2°48.298 9.4 345 6.4 100280 87
2004-04-20 07:25:12 51°12.226 2°48.267 9.2 343 6.4 100280 86
2004-04-20 07:25:17 51°12.217 2°48.237 9.7 349 6.4 100280 86
2004-04-20 07:25:22 51°12.208 2°48.207 9.5 349 6.4 100280 86
2004-04-20 07:25:27 51°12.199 2°48.177 9.6 346 6.4 100280 86
2004-04-20 07:25:32 51°12.19 2°48.147 9.4 346 6.5 100280 86
2004-04-20 07:25:37 51°12.18 2°48.117 9.3 346 6.5 100280 86
2004-04-20 07:25:41 51°12.173 2°48.093 9.5 348 6.5 100280 86
2004-04-20 07:25:46 51°12.164 2°48.063 10.3 346 6.5 100280 86
2004-04-20 07:25:52 51°12.153 2°48.027 9.5 344 6.5 100280 86
2004-04-20 07:25:57 51°12.144 2°47.996 9.1 345 6.5 100280 86
2004-04-20 07:26:02 51°12.135 2°47.966 9.5 344 6.5 100280 86
2004-04-20 07:26:07 51°12.126 2°47.935 9.3 347 6.5 100280 86
2004-04-20 07:26:12 51°12.118 2°47.904 9.8 349 6.5 100280 86
2004-04-20 07:26:17 51°12.109 2°47.874 10.1 350 6.5 100280 86
2004-04-20 07:26:21 51°12.102 2°47.849 10.3 345 6.5 100280 86
2004-04-20 07:26:27 51°12.092 2°47.813 9.7 348 6.5 100280 86
2004-04-20 07:26:32 51°12.083 2°47.782 9.7 348 6.5 100280 86
2004-04-20 07:26:37 51°12.074 2°47.752 10.1 348 6.5 100280 86
2004-04-20 07:26:42 51°12.064 2°47.722 9.7 346 6.5 100280 86
2004-04-20 07:26:46 51°12.057 2°47.697 9.8 345 6.5 100280 86
2004-04-20 07:26:51 51°12.048 2°47.667 9.3 346 6.5 100280 86
2004-04-20 07:26:57 51°12.038 2°47.63 10.4 347 6.5 100280 86
2004-04-20 07:27:02 51°12.029 2°47.6 10.3 345 6.5 100280 86
2004-04-20 07:27:07 51°12.021 2°47.569 10.1 346 6.5 100280 86
2004-04-20 07:27:12 51°12.012 2°47.538 10.4 347 6.6 100280 86
2004-04-20 07:27:17 51°12.004 2°47.507 10.2 347 6.6 100280 86
2004-04-20 07:27:22 51°11.995 2°47.477 10.1 347 6.6 100290 86
2004-04-20 07:27:26 51°11.988 2°47.452 9.9 345 6.6 100290 86
2004-04-20 07:27:32 51°11.977 2°47.415 9.9 346 6.5 100280 86
2004-04-20 07:27:37 51°11.969 2°47.385 9.9 347 6.5 100280 86
2004-04-20 07:27:41 51°11.961 2°47.361 10.5 347 6.6 100290 86
2004-04-20 07:27:47 51°11.95 2°47.324 10.1 347 6.6 100290 86
2004-04-20 07:27:51 51°11.943 2°47.3 10 346 6.6 100280 86
2004-04-20 07:27:57 51°11.933 2°47.263 10.4 349 6.6 100280 86
2004-04-20 07:28:02 51°11.924 2°47.232 10.3 347 6.5 100290 86
2004-04-20 07:28:07 51°11.916 2°47.201 9.8 347 6.5 100290 86
2004-04-20 07:28:12 51°11.907 2°47.171 9.8 347 6.6 100280 86
2004-04-20 07:28:17 51°11.898 2°47.14 9.8 346 6.6 100280 86
2004-04-20 07:28:22 51°11.89 2°47.109 10.4 344 6.6 100280 86
2004-04-20 07:28:26 51°11.883 2°47.085 10.3 345 6.6 100280 86
2004-04-20 07:28:31 51°11.874 2°47.055 9.7 345 6.6 100290 86
2004-04-20 07:28:37 51°11.863 2°47.019 10.7 345 6.6 100290 86
2004-04-20 07:28:42 51°11.854 2°46.988 10.6 346 6.6 100290 86
2004-04-20 07:28:47 51°11.845 2°46.958 10.1 346 6.6 100290 86
2004-04-20 07:28:52 51°11.836 2°46.927 10.2 343 6.6 100280 86
2004-04-20 07:28:57 51°11.828 2°46.896 10 346 6.6 100280 86
2004-04-20 07:29:01 51°11.821 2°46.871 10 348 6.6 100290 86
2004-04-20 07:29:07 51°11.811 2°46.834 10.1 348 6.6 100290 86
2004-04-20 07:29:12 51°11.802 2°46.803 9.7 346 6.6 100280 86
2004-04-20 07:29:17 51°11.793 2°46.772 10.5 346 6.6 100280 86
2004-04-20 07:29:22 51°11.785 2°46.742 10.4 346 6.6 100290 86
2004-04-20 07:29:26 51°11.778 2°46.717 10.7 349 6.6 100290 86
2004-04-20 07:29:32 51°11.767 2°46.68 10.3 347 6.6 100290 86
2004-04-20 07:29:36 51°11.76 2°46.656 10.1 348 6.6 100290 86
2004-04-20 07:29:42 51°11.749 2°46.62 10.1 349 6.6 100290 86
2004-04-20 07:29:46 51°11.742 2°46.595 10.1 349 6.6 100290 86
2004-04-20 07:29:52 51°11.732 2°46.559 10 349 6.6 100290 86
2004-04-20 07:29:57 51°11.723 2°46.528 9.5 348 6.6 100290 86
2004-04-20 07:30:02 51°11.714 2°46.497 10.2 348 6.6 100290 85
2004-04-20 07:30:07 51°11.706 2°46.466 10.4 347 6.6 100290 85
2004-04-20 07:30:12 51°11.697 2°46.436 9.6 346 6.6 100290 85
2004-04-20 07:30:17 51°11.69 2°46.404 9.7 346 6.6 100290 85
2004-04-20 07:30:22 51°11.682 2°46.374 10.3 349 6.6 100290 85
2004-04-20 07:30:26 51°11.676 2°46.349 10.4 344 6.6 100290 85
2004-04-20 07:30:32 51°11.667 2°46.311 9.6 346 6.6 100290 85
2004-04-20 07:30:37 51°11.659 2°46.28 9.6 348 6.6 100290 85
2004-04-20 07:30:41 51°11.653 2°46.255 9.5 347 6.6 100290 85
2004-04-20 07:30:47 51°11.644 2°46.217 10.1 346 6.6 100290 85
2004-04-20 07:30:52 51°11.636 2°46.186 9.6 349 6.6 100290 85
2004-04-20 07:30:57 51°11.628 2°46.155 9.3 348 6.6 100290 85
2004-04-20 07:31:01 51°11.622 2°46.13 9.5 350 6.6 100290 85
2004-04-20 07:31:07 51°11.613 2°46.092 10.2 349 6.6 100290 85
2004-04-20 07:31:12 51°11.605 2°46.061 10.3 348 6.7 100290 85
2004-04-20 07:31:17 51°11.597 2°46.03 9.6 348 6.7 100290 85
2004-04-20 07:31:22 51°11.589 2°45.999 9.7 350 6.6 100290 85
2004-04-20 07:31:26 51°11.583 2°45.974 9.5 348 6.6 100290 85
2004-04-20 07:31:31 51°11.576 2°45.942 9.7 348 6.7 100290 85
2004-04-20 07:31:37 51°11.567 2°45.905 9.6 349 6.7 100290 85
2004-04-20 07:31:42 51°11.559 2°45.873 9.5 345 6.7 100290 85
2004-04-20 07:31:47 51°11.552 2°45.842 9.4 348 6.7 100290 85
2004-04-20 07:31:52 51°11.544 2°45.811 9.3 348 6.8 100290 85
2004-04-20 07:31:57 51°11.537 2°45.78 8.9 347 6.8 100290 85
2004-04-20 07:32:02 51°11.529 2°45.749 9.4 347 6.7 100290 85
2004-04-20 07:32:06 51°11.523 2°45.724 9.4 349 6.7 100290 85
2004-04-20 07:32:11 51°11.515 2°45.692 9.1 347 6.7 100290 85
2004-04-20 07:32:17 51°11.506 2°45.655 10.1 349 6.7 100290 85
2004-04-20 07:32:22 51°11.498 2°45.624 10.1 351 6.7 100290 85
2004-04-20 07:32:27 51°11.49 2°45.592 10.3 350 6.7 100290 85
2004-04-20 07:32:32 51°11.483 2°45.561 10.3 351 6.7 100290 85
2004-04-20 07:32:37 51°11.475 2°45.53 11 350 6.7 100290 85
2004-04-20 07:32:42 51°11.467 2°45.499 10.4 350 6.8 100290 85
2004-04-20 07:32:47 51°11.459 2°45.468 11 347 6.8 100290 85
2004-04-20 07:32:52 51°11.452 2°45.437 10.8 349 6.8 100290 85
2004-04-20 07:32:57 51°11.444 2°45.405 10.6 349 6.8 100290 85
2004-04-20 07:33:02 51°11.436 2°45.374 10.7 349 6.8 100280 85
2004-04-20 07:33:06 51°11.43 2°45.349 10.1 349 6.8 100280 85
2004-04-20 07:33:12 51°11.421 2°45.312 10.2 347 6.8 100290 85
2004-04-20 07:33:17 51°11.413 2°45.281 10.1 346 6.8 100290 85
2004-04-20 07:33:22 51°11.405 2°45.249 10.1 346 6.8 100280 85
2004-04-20 07:33:27 51°11.398 2°45.218 10.2 345 6.8 100280 85
2004-04-20 07:33:32 51°11.39 2°45.187 10.5 345 6.8 100280 85
2004-04-20 07:33:37 51°11.383 2°45.156 9.9 345 6.8 100280 85
2004-04-20 07:33:41 51°11.376 2°45.131 10.1 349 6.8 100290 84
2004-04-20 07:33:46 51°11.369 2°45.1 10.8 350 6.8 100290 84
2004-04-20 07:33:52 51°11.359 2°45.063 10.2 348 6.8 100280 84
2004-04-20 07:33:57 51°11.351 2°45.032 10.5 344 6.8 100280 84
2004-04-20 07:34:02 51°11.343 2°45.001 10.2 345 6.8 100280 84
2004-04-20 07:34:07 51°11.336 2°44.97 10.1 344 6.8 100280 84
2004-04-20 07:34:12 51°11.328 2°44.938 10.6 345 6.8 100280 84
2004-04-20 07:34:17 51°11.321 2°44.907 9.8 350 6.8 100280 84
2004-04-20 07:34:22 51°11.313 2°44.876 10.4 347 6.8 100280 84
2004-04-20 07:34:27 51°11.306 2°44.845 10.5 348 6.8 100280 84
2004-04-20 07:34:32 51°11.298 2°44.814 10.6 346 6.8 100280 84
2004-04-20 07:34:37 51°11.29 2°44.783 9.6 346 6.8 100280 84
2004-04-20 07:34:42 51°11.283 2°44.752 9.5 346 6.8 100290 84
2004-04-20 07:34:46 51°11.276 2°44.727 9.8 347 6.8 100290 84
2004-04-20 07:34:52 51°11.267 2°44.69 10.1 347 6.8 100290 84
2004-04-20 07:34:57 51°11.259 2°44.659 9.5 349 6.8 100290 84
2004-04-20 07:35:02 51°11.252 2°44.628 9.9 348 6.8 100290 84
2004-04-20 07:35:06 51°11.245 2°44.603 9.3 343 6.8 100290 84
2004-04-20 07:35:12 51°11.236 2°44.565 9.6 345 6.8 100290 84
2004-04-20 07:35:17 51°11.228 2°44.534 9.5 346 6.8 100290 84
2004-04-20 07:35:22 51°11.221 2°44.503 9.4 345 6.8 100280 84
2004-04-20 07:35:26 51°11.215 2°44.478 10 348 6.8 100280 84
2004-04-20 07:35:32 51°11.206 2°44.44 9.4 344 6.9 100290 84
2004-04-20 07:35:37 51°11.198 2°44.409 10.4 347 6.9 100290 84
2004-04-20 07:35:42 51°11.19 2°44.378 10.1 345 6.8 100290 84
2004-04-20 07:35:46 51°11.184 2°44.353 9.6 343 6.8 100290 84
2004-04-20 07:35:52 51°11.175 2°44.316 9.5 343 6.9 100290 84
2004-04-20 07:35:57 51°11.168 2°44.285 9.6 345 6.9 100290 84
2004-04-20 07:36:01 51°11.162 2°44.26 10.7 347 6.9 100290 84
2004-04-20 07:36:06 51°11.154 2°44.229 10 347 6.9 100290 84
2004-04-20 07:36:11 51°11.147 2°44.198 9.9 347 6.9 100290 84
2004-04-20 07:36:17 51°11.138 2°44.16 10.5 347 6.9 100290 84
2004-04-20 07:36:22 51°11.13 2°44.129 9.8 346 6.9 100280 84
2004-04-20 07:36:27 51°11.122 2°44.098 10.1 348 6.9 100280 84
2004-04-20 07:36:32 51°11.115 2°44.067 9.7 347 6.9 100290 83
2004-04-20 07:36:37 51°11.108 2°44.036 9.9 347 6.9 100290 83
2004-04-20 07:36:42 51°11.1 2°44.004 10.1 347 6.9 100290 83
2004-04-20 07:36:46 51°11.094 2°43.98 10.1 347 6.9 100290 83
2004-04-20 07:36:51 51°11.087 2°43.948 9.7 347 6.9 100280 83
2004-04-20 07:36:56 51°11.08 2°43.917 9.5 345 6.9 100280 83
2004-04-20 07:37:02 51°11.071 2°43.879 9.8 348 6.9 100280 83
2004-04-20 07:37:07 51°11.064 2°43.848 9.7 346 6.9 100280 83
2004-04-20 07:37:11 51°11.058 2°43.823 9.5 347 6.9 100280 83
2004-04-20 07:37:17 51°11.048 2°43.786 9.8 350 6.9 100280 83
2004-04-20 07:37:22 51°11.04 2°43.755 9.9 349 6.9 100290 83
2004-04-20 07:37:26 51°11.034 2°43.73 10.1 351 6.9 100290 83
2004-04-20 07:37:31 51°11.027 2°43.7 9.7 344 6.9 100290 83
2004-04-20 07:37:37 51°11.018 2°43.662 9.7 349 6.9 100290 83
2004-04-20 07:37:42 51°11.01 2°43.631 10.3 348 6.9 100290 83
2004-04-20 07:37:46 51°11.004 2°43.606 9.8 348 6.9 100290 83
2004-04-20 07:37:52 51°10.996 2°43.569 9.7 346 6.9 100290 83
2004-04-20 07:37:57 51°10.988 2°43.537 9.3 349 6.9 100290 83
2004-04-20 07:38:02 51°10.981 2°43.506 9.7 347 6.9 100290 83
2004-04-20 07:38:07 51°10.974 2°43.475 9.5 350 6.9 100290 83
2004-04-20 07:38:12 51°10.966 2°43.444 9.7 349 6.9 100290 83
2004-04-20 07:38:17 51°10.959 2°43.413 10.1 351 6.9 100290 83
2004-04-20 07:38:22 51°10.951 2°43.382 9.6 350 6.9 100300 83
2004-04-20 07:38:26 51°10.945 2°43.357 9.6 350 6.9 100300 83
2004-04-20 07:38:31 51°10.938 2°43.326 10.4 350 6.9 100290 83
2004-04-20 07:38:37 51°10.929 2°43.289 10 351 6.9 100290 83
2004-04-20 07:38:42 51°10.921 2°43.258 10.2 352 6.9 100290 83
2004-04-20 07:38:47 51°10.914 2°43.227 10 351 6.9 100290 83
2004-04-20 07:38:52 51°10.906 2°43.196 9.6 350 6.9 100290 83
2004-04-20 07:38:57 51°10.899 2°43.165 9.7 346 6.9 100290 83
2004-04-20 07:39:02 51°10.891 2°43.134 9.5 348 6.9 100290 83
2004-04-20 07:39:06 51°10.885 2°43.109 8.8 348 6.9 100290 83
2004-04-20 07:39:12 51°10.877 2°43.072 8.9 347 6.9 100300 83
2004-04-20 07:39:17 51°10.869 2°43.041 9.4 351 6.9 100300 83
2004-04-20 07:39:21 51°10.863 2°43.017 9.8 351 6.9 100290 83
2004-04-20 07:39:26 51°10.856 2°42.986 10.1 349 6.9 100290 83
2004-04-20 07:39:32 51°10.847 2°42.948 10.1 348 6.9 100300 83
2004-04-20 07:39:37 51°10.839 2°42.918 10.3 346 6.9 100300 83
2004-04-20 07:39:42 51°10.832 2°42.887 9.9 345 6.9 100300 83
2004-04-20 07:39:47 51°10.824 2°42.856 9.5 348 6.9 100300 83
2004-04-20 07:39:52 51°10.817 2°42.825 9.7 346 6.9 100290 83
2004-04-20 07:39:57 51°10.81 2°42.794 10.1 343 6.9 100290 83
2004-04-20 07:40:02 51°10.803 2°42.763 9.4 345 6.9 100300 83
2004-04-20 07:40:06 51°10.797 2°42.738 10.1 347 6.9 100300 83
2004-04-20 07:40:12 51°10.788 2°42.701 9.8 346 6.9 100290 83
2004-04-20 07:40:16 51°10.782 2°42.676 9.8 348 6.9 100290 83
2004-04-20 07:40:22 51°10.773 2°42.639 9.8 349 6.9 100290 83
2004-04-20 07:40:27 51°10.766 2°42.608 9.5 346 6.9 100290 83
2004-04-20 07:40:32 51°10.758 2°42.578 9.5 346 6.9 100290 83
2004-04-20 07:40:37 51°10.751 2°42.547 9.4 347 6.9 100290 83
2004-04-20 07:40:41 51°10.744 2°42.522 8.9 346 6.9 100300 83
2004-04-20 07:40:47 51°10.736 2°42.485 9.9 348 6.9 100300 83
2004-04-20 07:40:52 51°10.728 2°42.454 9.5 349 6.9 100300 83
2004-04-20 07:40:57 51°10.721 2°42.423 9.5 344 6.9 100300 83
2004-04-20 07:41:02 51°10.713 2°42.393 10 345 6.9 100290 83
2004-04-20 07:41:07 51°10.706 2°42.362 9.5 349 6.9 100290 83
2004-04-20 07:41:11 51°10.7 2°42.337 9.4 351 7 100290 83
2004-04-20 07:41:17 51°10.691 2°42.3 9.4 347 7 100290 83
2004-04-20 07:41:22 51°10.683 2°42.269 9.4 347 7 100290 83
2004-04-20 07:41:26 51°10.678 2°42.245 9.4 348 7 100290 83
2004-04-20 07:41:31 51°10.67 2°42.214 9.4 348 7 100300 83
2004-04-20 07:41:37 51°10.662 2°42.176 9.2 351 7 100300 83
2004-04-20 07:41:42 51°10.654 2°42.145 9.3 348 7 100290 83
2004-04-20 07:41:46 51°10.649 2°42.121 9.6 350 7 100290 83
2004-04-20 07:41:52 51°10.64 2°42.084 10 352 7 100290 83
2004-04-20 07:41:57 51°10.632 2°42.053 9.7 352 7 100290 83
2004-04-20 07:42:02 51°10.625 2°42.022 9.3 351 7 100290 83
2004-04-20 07:42:07 51°10.617 2°41.991 9.4 351 7 100290 83
2004-04-20 07:42:12 51°10.61 2°41.96 9.5 351 7 100290 83
2004-04-20 07:42:17 51°10.602 2°41.929 9.2 352 7 100290 83
2004-04-20 07:42:22 51°10.595 2°41.898 9.5 352 7 100300 83
2004-04-20 07:42:26 51°10.589 2°41.874 9.4 352 7 100300 83
2004-04-20 07:42:31 51°10.582 2°41.843 9.2 346 7 100300 83
2004-04-20 07:42:37 51°10.573 2°41.806 9.5 348 7 100300 83
2004-04-20 07:42:42 51°10.565 2°41.775 9.2 349 7 100290 82
2004-04-20 07:42:47 51°10.558 2°41.744 9.1 351 7 100290 82
2004-04-20 07:42:52 51°10.551 2°41.713 9 350 7 100300 82
2004-04-20 07:42:57 51°10.544 2°41.682 9.3 349 7 100300 82
2004-04-20 07:43:02 51°10.536 2°41.651 9.5 351 7 100290 82
2004-04-20 07:43:06 51°10.531 2°41.626 9.7 353 7 100290 82
2004-04-20 07:43:11 51°10.524 2°41.595 9.5 350 7 100290 82
2004-04-20 07:43:17 51°10.515 2°41.558 9.8 351 7 100290 82
2004-04-20 07:43:22 51°10.507 2°41.527 9.6 351 7 100300 83
2004-04-20 07:43:27 51°10.5 2°41.496 8.9 350 7 100300 83
2004-04-20 07:43:32 51°10.492 2°41.466 9.5 349 7 100290 83
2004-04-20 07:43:37 51°10.484 2°41.435 9.5 347 7 100290 83
2004-04-20 07:43:42 51°10.476 2°41.404 9.3 347 7 100290 83
2004-04-20 07:43:47 51°10.469 2°41.374 9.3 349 7 100290 83
2004-04-20 07:43:52 51°10.461 2°41.343 9.7 351 7 100300 83
2004-04-20 07:43:57 51°10.454 2°41.312 9.5 348 7 100300 83
2004-04-20 07:44:01 51°10.449 2°41.287 9.7 347 7.1 100290 82
2004-04-20 07:44:06 51°10.442 2°41.256 9.4 348 7.1 100290 82
2004-04-20 07:44:12 51°10.434 2°41.219 9.4 351 7.1 100300 83
2004-04-20 07:44:17 51°10.427 2°41.188 9.5 350 7.1 100300 83
2004-04-20 07:44:22 51°10.42 2°41.157 9.4 349 7.1 100300 83
2004-04-20 07:44:27 51°10.413 2°41.126 9.5 348 7.1 100300 83
2004-04-20 07:44:32 51°10.405 2°41.095 10.1 349 7.1 100290 83
2004-04-20 07:44:36 51°10.399 2°41.07 9.4 349 7.1 100290 83
2004-04-20 07:44:42 51°10.39 2°41.034 9.5 347 7.1 100290 83
2004-04-20 07:44:46 51°10.385 2°41.009 9.7 348 7.1 100290 83
2004-04-20 07:44:52 51°10.376 2°40.972 9.4 349 7.1 100290 83
2004-04-20 07:44:57 51°10.368 2°40.941 9.4 350 7.1 100290 83
2004-04-20 07:45:02 51°10.362 2°40.91 9.4 351 7.1 100290 82
2004-04-20 07:45:07 51°10.354 2°40.879 9.2 348 7.1 100290 82
2004-04-20 07:45:12 51°10.347 2°40.848 9.1 347 7.1 100290 82
2004-04-20 07:45:16 51°10.341 2°40.824 9.2 347 7.1 100290 82
2004-04-20 07:45:22 51°10.332 2°40.787 9.4 351 7.1 100290 82
2004-04-20 07:45:26 51°10.326 2°40.762 9.5 350 7.1 100290 82
2004-04-20 07:45:32 51°10.318 2°40.725 9.3 351 7.1 100290 82
2004-04-20 07:45:37 51°10.31 2°40.694 9 352 7.1 100290 82
2004-04-20 07:45:42 51°10.303 2°40.663 9.3 351 7.1 100290 82
2004-04-20 07:45:47 51°10.296 2°40.632 9.5 351 7.1 100290 82
2004-04-20 07:45:52 51°10.289 2°40.602 9.4 352 7.1 100290 82
2004-04-20 07:45:57 51°10.282 2°40.571 9.6 349 7.1 100290 82
2004-04-20 07:46:02 51°10.274 2°40.54 9.4 353 7.1 100300 82
2004-04-20 07:46:07 51°10.267 2°40.509 9.5 347 7.1 100300 82
2004-04-20 07:46:12 51°10.26 2°40.478 9.3 346 7.1 100290 82
2004-04-20 07:46:17 51°10.253 2°40.447 9.7 353 7.1 100290 82
2004-04-20 07:46:22 51°10.245 2°40.416 10.1 351 7.1 100290 82
2004-04-20 07:46:26 51°10.239 2°40.391 9.9 352 7.1 100290 82
2004-04-20 07:46:32 51°10.231 2°40.354 9.5 353 7.2 100290 82
2004-04-20 07:46:37 51°10.224 2°40.323 9.3 353 7.2 100290 82
2004-04-20 07:46:41 51°10.218 2°40.299 10.2 351 7.2 100300 82
2004-04-20 07:46:47 51°10.209 2°40.262 9.5 350 7.2 100300 82
2004-04-20 07:46:52 51°10.202 2°40.231 9.7 352 7.2 100290 82
2004-04-20 07:46:57 51°10.194 2°40.2 9.3 351 7.2 100290 82
2004-04-20 07:47:02 51°10.187 2°40.17 9.5 350 7.2 100290 81
2004-04-20 07:47:06 51°10.182 2°40.145 10.2 349 7.2 100290 81
2004-04-20 07:47:12 51°10.173 2°40.108 9.8 352 7.2 100290 81
2004-04-20 07:47:17 51°10.166 2°40.077 9.1 351 7.2 100290 81
2004-04-20 07:47:22 51°10.159 2°40.046 9.1 347 7.2 100290 81
2004-04-20 07:47:27 51°10.152 2°40.016 9.4 351 7.2 100290 81
2004-04-20 07:47:32 51°10.145 2°39.985 8.9 350 7.2 100290 81
2004-04-20 07:47:37 51°10.137 2°39.954 9.5 352 7.2 100290 81
2004-04-20 07:47:42 51°10.13 2°39.924 9.5 350 7.2 100290 81
2004-04-20 07:47:46 51°10.124 2°39.899 9.6 353 7.2 100290 81
2004-04-20 07:47:52 51°10.116 2°39.862 9.3 352 7.2 100300 81
2004-04-20 07:47:57 51°10.109 2°39.831 9.1 350 7.2 100300 81
2004-04-20 07:48:02 51°10.102 2°39.8 9.5 352 7.2 100290 81
2004-04-20 07:48:07 51°10.095 2°39.769 9.4 352 7.2 100290 81
2004-04-20 07:48:12 51°10.087 2°39.738 9.6 353 7.2 100300 81
2004-04-20 07:48:17 51°10.08 2°39.707 9.5 352 7.2 100300 81
2004-04-20 07:48:22 51°10.073 2°39.676 9.5 355 7.2 100300 81
2004-04-20 07:48:27 51°10.065 2°39.646 9.9 353 7.2 100300 81
2004-04-20 07:48:32 51°10.058 2°39.615 9.5 353 7.2 100300 81
2004-04-20 07:48:37 51°10.05 2°39.584 9.6 351 7.2 100300 81
2004-04-20 07:48:41 51°10.045 2°39.559 9.6 350 7.2 100300 81
2004-04-20 07:48:46 51°10.038 2°39.528 9.4 348 7.2 100300 81
2004-04-20 07:48:52 51°10.029 2°39.491 9.7 349 7.2 100290 81
2004-04-20 07:48:57 51°10.022 2°39.46 9.7 351 7.2 100290 81
2004-04-20 07:49:02 51°10.015 2°39.429 9.6 349 7.2 100290 81
2004-04-20 07:49:06 51°10.009 2°39.405 9.9 351 7.2 100290 81
2004-04-20 07:49:12 51°10 2°39.367 9.5 351 7.2 100300 81
2004-04-20 07:49:17 51°9.993 2°39.336 9.9 348 7.2 100300 81
2004-04-20 07:49:21 51°9.987 2°39.312 9.6 349 7.2 100290 81
2004-04-20 07:49:26 51°9.98 2°39.281 9.7 351 7.2 100290 81
2004-04-20 07:49:32 51°9.971 2°39.243 9.6 351 7.2 100290 81
2004-04-20 07:49:37 51°9.964 2°39.212 9.3 351 7.2 100290 81
2004-04-20 07:49:42 51°9.957 2°39.181 9 353 7.2 100290 81
2004-04-20 07:49:46 51°9.951 2°39.156 9.3 351 7.2 100290 81
2004-04-20 07:49:52 51°9.943 2°39.119 9.2 352 7.2 100290 81
2004-04-20 07:49:57 51°9.935 2°39.088 9.3 353 7.2 100290 81
2004-04-20 07:50:02 51°9.928 2°39.057 9.2 348 7.2 100290 81
2004-04-20 07:50:06 51°9.922 2°39.032 9.4 350 7.2 100290 81
2004-04-20 07:50:12 51°9.914 2°38.994 9.7 352 7.2 100300 81
2004-04-20 07:50:17 51°9.907 2°38.963 9.1 351 7.2 100300 81
2004-04-20 07:50:22 51°9.899 2°38.932 9.5 351 7.2 100290 80
2004-04-20 07:50:27 51°9.892 2°38.901 9.2 350 7.2 100290 80
2004-04-20 07:50:32 51°9.885 2°38.87 9.2 352 7.2 100300 80
2004-04-20 07:50:37 51°9.878 2°38.839 9.2 353 7.2 100300 80
2004-04-20 07:50:42 51°9.871 2°38.808 9.6 351 7.2 100290 80
2004-04-20 07:50:47 51°9.863 2°38.777 8.9 348 7.2 100290 80
2004-04-20 07:50:52 51°9.856 2°38.746 9.7 351 7.2 100290 80
2004-04-20 07:50:56 51°9.851 2°38.721 9.4 349 7.2 100290 80
2004-04-20 07:51:01 51°9.844 2°38.69 9.2 349 7.2 100300 80
2004-04-20 07:51:07 51°9.835 2°38.652 9.1 349 7.2 100300 80
2004-04-20 07:51:12 51°9.828 2°38.621 9.2 348 7.2 100290 80
2004-04-20 07:51:17 51°9.82 2°38.59 9.6 352 7.2 100290 80
2004-04-20 07:51:22 51°9.813 2°38.56 9.8 354 7.2 100290 80
2004-04-20 07:51:26 51°9.807 2°38.535 10 352 7.2 100290 80
2004-04-20 07:51:32 51°9.798 2°38.497 10.1 352 7.2 100300 80
2004-04-20 07:51:37 51°9.791 2°38.466 9.4 351 7.2 100300 80
2004-04-20 07:51:42 51°9.784 2°38.435 9.3 352 7.2 100290 80
2004-04-20 07:51:46 51°9.778 2°38.41 9.9 352 7.2 100290 80
2004-04-20 07:51:52 51°9.77 2°38.373 9.9 354 7.2 100300 80
2004-04-20 07:51:57 51°9.762 2°38.341 9.4 352 7.2 100300 80
2004-04-20 07:52:01 51°9.756 2°38.317 9.4 356 7.2 100300 80
2004-04-20 07:52:06 51°9.749 2°38.285 10.1 353 7.2 100300 80
2004-04-20 07:52:12 51°9.74 2°38.248 9.9 354 7.2 100300 80
2004-04-20 07:52:17 51°9.733 2°38.217 9.8 352 7.2 100300 80
2004-04-20 07:52:22 51°9.726 2°38.186 9.7 352 7.2 100300 80
2004-04-20 07:52:27 51°9.719 2°38.154 9.3 351 7.2 100300 80
2004-04-20 07:52:32 51°9.712 2°38.123 9.9 350 7.2 100300 80
2004-04-20 07:52:37 51°9.704 2°38.092 9.7 352 7.2 100300 80
2004-04-20 07:52:42 51°9.697 2°38.061 9.6 351 7.2 100290 80
2004-04-20 07:52:46 51°9.691 2°38.036 9.7 348 7.2 100290 80
2004-04-20 07:52:52 51°9.682 2°37.999 9.4 348 7.2 100300 80
2004-04-20 07:52:57 51°9.675 2°37.968 9.7 348 7.2 100300 80
2004-04-20 07:53:02 51°9.667 2°37.937 9.2 353 7.2 100300 80
2004-04-20 07:53:06 51°9.662 2°37.912 10.1 351 7.2 100300 80
2004-04-20 07:53:12 51°9.653 2°37.874 9.7 352 7.2 100300 80
2004-04-20 07:53:17 51°9.646 2°37.843 9.5 352 7.2 100300 80
2004-04-20 07:53:22 51°9.638 2°37.812 9.3 352 7.2 100300 79
2004-04-20 07:53:26 51°9.633 2°37.787 9.4 349 7.2 100300 79
2004-04-20 07:53:32 51°9.624 2°37.75 9.2 349 7.2 100300 80
2004-04-20 07:53:37 51°9.617 2°37.719 9.1 349 7.2 100300 80
2004-04-20 07:53:42 51°9.61 2°37.688 9.1 349 7.2 100300 80
2004-04-20 07:53:46 51°9.604 2°37.663 8.8 350 7.2 100300 80
2004-04-20 07:53:52 51°9.595 2°37.625 9.4 349 7.3 100300 80
2004-04-20 07:53:56 51°9.589 2°37.6 9.1 353 7.3 100300 80
2004-04-20 07:54:01 51°9.582 2°37.569 9.6 350 7.3 100300 80
2004-04-20 07:54:07 51°9.574 2°37.532 9.9 353 7.3 100300 80
2004-04-20 07:54:12 51°9.566 2°37.501 9.4 352 7.3 100300 80
2004-04-20 07:54:17 51°9.559 2°37.469 9.6 353 7.3 100300 80
2004-04-20 07:54:22 51°9.551 2°37.438 9.3 353 7.3 100300 80
2004-04-20 07:54:26 51°9.545 2°37.413 10 353 7.3 100300 80
2004-04-20 07:54:31 51°9.538 2°37.382 10 351 7.3 100300 80
2004-04-20 07:54:37 51°9.53 2°37.344 9.2 351 7.3 100300 80
2004-04-20 07:54:42 51°9.522 2°37.313 9.8 351 7.3 100300 79
2004-04-20 07:54:47 51°9.515 2°37.282 9.4 352 7.3 100300 79
2004-04-20 07:54:52 51°9.507 2°37.25 9.3 350 7.3 100300 79
2004-04-20 07:54:57 51°9.5 2°37.219 9.7 350 7.3 100300 79
2004-04-20 07:55:02 51°9.493 2°37.188 9.2 348 7.3 100300 79
2004-04-20 07:55:06 51°9.487 2°37.163 9.3 352 7.3 100300 79
2004-04-20 07:55:12 51°9.478 2°37.125 9.3 349 7.3 100300 79
2004-04-20 07:55:17 51°9.471 2°37.093 8.9 350 7.3 100300 79
2004-04-20 07:55:22 51°9.463 2°37.062 9.2 349 7.3 100300 79
2004-04-20 07:55:27 51°9.456 2°37.03 8.9 349 7.3 100300 79
2004-04-20 07:55:32 51°9.45 2°36.999 9.2 344 7.3 100300 79
2004-04-20 07:55:37 51°9.443 2°36.967 9.5 349 7.3 100300 79
2004-04-20 07:55:42 51°9.437 2°36.935 9.2 349 7.3 100300 79
2004-04-20 07:55:46 51°9.432 2°36.909 9.2 353 7.3 100300 79
2004-04-20 07:55:51 51°9.425 2°36.877 8.9 354 7.3 100300 79
2004-04-20 07:55:57 51°9.417 2°36.84 9.5 353 7.3 100300 79
2004-04-20 07:56:02 51°9.41 2°36.808 9.4 355 7.3 100300 79
2004-04-20 07:56:07 51°9.403 2°36.777 9.3 351 7.3 100300 79
2004-04-20 07:56:12 51°9.396 2°36.748 8.9 350 7.3 100300 79
2004-04-20 07:56:17 51°9.389 2°36.721 8.1 349 7.3 100300 79
2004-04-20 07:56:22 51°9.382 2°36.697 8.1 348 7.3 100300 79
2004-04-20 07:56:26 51°9.377 2°36.679 7.5 349 7.3 100300 79
2004-04-20 07:56:31 51°9.37 2°36.657 7 350 7.3 100300 79
2004-04-20 07:56:37 51°9.361 2°36.635 7 351 7.3 100300 79
2004-04-20 07:56:42 51°9.354 2°36.618 6.6 351 7.3 100300 79
2004-04-20 07:56:47 51°9.346 2°36.602 6.3 352 7.3 100300 79
2004-04-20 07:56:52 51°9.339 2°36.588 6.2 352 7.3 100300 79
2004-04-20 07:56:57 51°9.331 2°36.576 6.3 355 7.3 100300 79
2004-04-20 07:57:02 51°9.324 2°36.564 5.8 356 7.3 100310 79
2004-04-20 07:57:06 51°9.318 2°36.556 5.6 2 7.3 100310 79
2004-04-20 07:57:12 51°9.309 2°36.544 5.4 5 7.3 100310 79
2004-04-20 07:57:17 51°9.302 2°36.535 5.6 8 7.3 100310 79
2004-04-20 07:57:22 51°9.295 2°36.527 5.6 8 7.3 100310 79
2004-04-20 07:57:27 51°9.288 2°36.519 5.5 10 7.3 100310 79
2004-04-20 07:57:30 51°9.284 2°36.515 5.2 10 7.4 100310 79
2004-04-20 07:57:37 51°9.274 2°36.505 4.8 9 7.4 100310 79
2004-04-20 07:57:42 51°9.268 2°36.499 4.9 4 7.4 100310 79
2004-04-20 07:57:47 51°9.262 2°36.493 4.7 5 7.4 100310 79
2004-04-20 07:57:52 51°9.255 2°36.487 4.7 6 7.3 100320 79
2004-04-20 07:57:57 51°9.249 2°36.48 4.8 3 7.3 100320 79
2004-04-20 07:58:01 51°9.244 2°36.474 4.8   7.3 100320 79
2004-04-20 07:58:06 51°9.239 2°36.467 4.6 355 7.3 100320 79
2004-04-20 07:58:12 51°9.232 2°36.457 4.3 357 7.4 100320 79
2004-04-20 07:58:17 51°9.228 2°36.449 4.3 352 7.4 100320 79
2004-04-20 07:58:22 51°9.223 2°36.441 4.2 359 7.4 100320 79
2004-04-20 07:58:27 51°9.219 2°36.434 4 351 7.4 100320 79
2004-04-20 07:58:32 51°9.216 2°36.426 3.8 347 7.3 100320 79
2004-04-20 07:58:37 51°9.213 2°36.42 3.4 340 7.3 100320 79
2004-04-20 07:58:42 51°9.211 2°36.414 3.4 337 7.4 100320 79
2004-04-20 07:58:46 51°9.209 2°36.41 3.3 324 7.4 100320 79
2004-04-20 07:58:52 51°9.207 2°36.404 3.5 326 7.4 100320 79
2004-04-20 07:58:57 51°9.206 2°36.4 3.4 321 7.4 100320 79
2004-04-20 07:59:02 51°9.204 2°36.397 2.9 316 7.4 100320 79
2004-04-20 07:59:07 51°9.204 2°36.394 3.1 310 7.4 100320 79
2004-04-20 07:59:12 51°9.203 2°36.392 2.7 310 7.4 100320 79
2004-04-20 07:59:17 51°9.202 2°36.39 2.5 307 7.4 100320 79
2004-04-20 07:59:21 51°9.201 2°36.388 2.9 306 7.4 100320 79
2004-04-20 07:59:27 51°9.2 2°36.385 3 303 7.4 100320 79
2004-04-20 07:59:32 51°9.199 2°36.382 2.8 302 7.4 100320 79
2004-04-20 07:59:37 51°9.198 2°36.38 2.6 293 7.4 100320 79
2004-04-20 07:59:42 51°9.198 2°36.377 2.8 292 7.4 100320 79
2004-04-20 07:59:47 51°9.197 2°36.375 2.8 293 7.4 100320 79
2004-04-20 07:59:52 51°9.196 2°36.372 2.8 293 7.4 100320 79
2004-04-20 07:59:57 51°9.195 2°36.37 2.9 292 7.4 100320 79
2004-04-20 08:00:02 51°9.194 2°36.367 2.7 292 7.4 100320 79
2004-04-20 08:00:07 51°9.193 2°36.365 2.8 292 7.4 100320 79
2004-04-20 08:00:12 51°9.193 2°36.362 2.6 291 7.5 100320 79
2004-04-20 08:00:17 51°9.192 2°36.359 2.6 289 7.5 100320 79
2004-04-20 08:00:22 51°9.191 2°36.357 2.5 288 7.5 100320 79
2004-04-20 08:00:27 51°9.19 2°36.354 2.4 288 7.5 100320 79
2004-04-20 08:00:32 51°9.189 2°36.351 2.2 288 7.5 100320 79
2004-04-20 08:00:37 51°9.189 2°36.348 2.1 288 7.5 100320 79
2004-04-20 08:00:42 51°9.188 2°36.346 2.1 288 7.5 100320 79
2004-04-20 08:00:48 51°9.187 2°36.343 2.2 289 7.5 100320 79
2004-04-20 08:00:52 51°9.186 2°36.341 2.2 288 7.5 100320 79
2004-04-20 08:00:57 51°9.185 2°36.338 2.1 288 7.5 100320 79
2004-04-20 08:01:02 51°9.185 2°36.335 2 290 7.5 100320 79
2004-04-20 08:01:06 51°9.184 2°36.333 2.3 290 7.5 100320 79
2004-04-20 08:01:12 51°9.183 2°36.33 2.3 291 7.5 100320 79
2004-04-20 08:01:17 51°9.182 2°36.327 2.5 299 7.5 100320 79
2004-04-20 08:01:22 51°9.181 2°36.324 2.5 298 7.5 100320 79
2004-04-20 08:01:26 51°9.181 2°36.322 2.5 297 7.5 100320 79
2004-04-20 08:01:32 51°9.18 2°36.319 2.5 299 7.5 100320 79
2004-04-20 08:01:37 51°9.179 2°36.316 2.9 298 7.5 100320 79
2004-04-20 08:01:42 51°9.178 2°36.313 2.7 291 7.5 100320 79
2004-04-20 08:01:46 51°9.177 2°36.311 2.6 291 7.5 100320 79
2004-04-20 08:01:52 51°9.177 2°36.308 2.6 296 7.5 100320 79
2004-04-20 08:01:57 51°9.176 2°36.305 2.8 297 7.5 100320 79
2004-04-20 08:02:02 51°9.175 2°36.302 2.6 297 7.6 100320 79
2004-04-20 08:02:07 51°9.174 2°36.299 2.6 298 7.6 100320 79
2004-04-20 08:02:12 51°9.173 2°36.296 2.7 298 7.6 100320 79
2004-04-20 08:02:17 51°9.173 2°36.293 2.7 297 7.6 100320 79
2004-04-20 08:02:21 51°9.172 2°36.291 2.6 299 7.6 100320 79
2004-04-20 08:02:27 51°9.171 2°36.288 2.8 299 7.6 100320 79
2004-04-20 08:02:32 51°9.17 2°36.285 2.8 299 7.6 100320 79
2004-04-20 08:02:37 51°9.169 2°36.282 2.9 303 7.6 100320 79
2004-04-20 08:02:42 51°9.168 2°36.279 3 296 7.6 100320 79
2004-04-20 08:02:46 51°9.168 2°36.277 2.8 298 7.6 100320 79
2004-04-20 08:02:52 51°9.167 2°36.273 2.7 299 7.6 100320 79
2004-04-20 08:02:56 51°9.166 2°36.271 2.6 299 7.6 100320 79
2004-04-20 08:03:02 51°9.165 2°36.267 2.8 298 7.7 100320 79
2004-04-20 08:03:07 51°9.165 2°36.264 2.9 298 7.7 100320 79
2004-04-20 08:03:12 51°9.164 2°36.261 2.9 298 7.7 100320 79
2004-04-20 08:03:17 51°9.163 2°36.258 3 295 7.7 100320 79
2004-04-20 08:03:21 51°9.163 2°36.256 2.8 296 7.7 100330 79
2004-04-20 08:03:26 51°9.162 2°36.253 2.7 298 7.7 100330 79
2004-04-20 08:03:32 51°9.161 2°36.249 2.8 299 7.7 100330 79
2004-04-20 08:03:37 51°9.161 2°36.246 2.8 299 7.7 100330 79
2004-04-20 08:03:42 51°9.16 2°36.243 2.7 300 7.7 100320 78
2004-04-20 08:03:47 51°9.159 2°36.24 3 305 7.7 100320 78
2004-04-20 08:03:52 51°9.159 2°36.237 2.8 305 7.7 100330 78
2004-04-20 08:03:57 51°9.158 2°36.234 2.8 304 7.7 100330 78
2004-04-20 08:04:01 51°9.158 2°36.231 2.8 303 7.7 100330 78
2004-04-20 08:04:06 51°9.157 2°36.228 2.7 303 7.7 100330 78
2004-04-20 08:04:12 51°9.156 2°36.224 2.8 302 7.7 100330 78
2004-04-20 08:04:17 51°9.156 2°36.221 2.7 306 7.7 100330 78
2004-04-20 08:04:22 51°9.155 2°36.218 2.7 305 7.7 100330 78
2004-04-20 08:04:26 51°9.154 2°36.216 3 299 7.7 100330 78
2004-04-20 08:04:32 51°9.153 2°36.212 2.8 298 7.7 100330 78
2004-04-20 08:04:37 51°9.153 2°36.209 2.8 299 7.7 100330 78
2004-04-20 08:04:42 51°9.152 2°36.206 2.6 295 7.7 100330 78
2004-04-20 08:04:47 51°9.151 2°36.203 2.6 301 7.7 100330 78
2004-04-20 08:04:52 51°9.151 2°36.2 2.5 305 7.7 100330 78
2004-04-20 08:04:57 51°9.15 2°36.196 2.7 301 7.7 100330 78
2004-04-20 08:05:02 51°9.149 2°36.193 2.5 304 7.7 100330 78
2004-04-20 08:05:06 51°9.149 2°36.191 2.9 304 7.7 100330 78
2004-04-20 08:05:12 51°9.148 2°36.187 2.6 303 7.7 100330 78
2004-04-20 08:05:17 51°9.147 2°36.183 2.7 302 7.7 100330 78
2004-04-20 08:05:22 51°9.147 2°36.18 2.5 303 7.7 100330 78
2004-04-20 08:05:27 51°9.146 2°36.177 2.9 303 7.7 100330 78
2004-04-20 08:05:31 51°9.145 2°36.174 2.5 303 7.8 100330 78
2004-04-20 08:05:37 51°9.145 2°36.171 2.6 308 7.8 100330 78
2004-04-20 08:05:42 51°9.144 2°36.167 2.6 308 7.8 100330 78
2004-04-20 08:05:46 51°9.144 2°36.165 2.5 308 7.8 100330 78
2004-04-20 08:05:52 51°9.143 2°36.161 2.5 308 7.8 100330 78
2004-04-20 08:05:57 51°9.142 2°36.158 2.6 307 7.8 100330 78
2004-04-20 08:06:02 51°9.141 2°36.154 1.9 310 7.8 100330 78
2004-04-20 08:06:06 51°9.141 2°36.152 2.6 311 7.8 100330 78
2004-04-20 08:06:12 51°9.14 2°36.148 2.8 306 7.8 100330 78
2004-04-20 08:06:17 51°9.139 2°36.144 2.8 306 7.8 100330 78
2004-04-20 08:06:22 51°9.138 2°36.141 2.7 309 7.8 100340 78
2004-04-20 08:06:26 51°9.138 2°36.138 2.5 314 7.8 100340 78
2004-04-20 08:06:32 51°9.137 2°36.134 2.9 309 7.8 100330 78
2004-04-20 08:06:37 51°9.136 2°36.129 2.9 308 7.8 100330 78
2004-04-20 08:06:42 51°9.136 2°36.123 3 314 7.8 100330 78
2004-04-20 08:06:47 51°9.135 2°36.117 3.5 42 7.8 100330 78
2004-04-20 08:06:52 51°9.134 2°36.111 3.5 320 7.8 100330 78
2004-04-20 08:06:57 51°9.133 2°36.104 3.4 327 7.8 100330 78
2004-04-20 08:07:01 51°9.132 2°36.098 3.6 335 7.8 100330 78
2004-04-20 08:07:06 51°9.131 2°36.09 4.1 328 7.8 100330 78
2004-04-20 08:07:12 51°9.129 2°36.08 4.3 329 7.9 100330 78
2004-04-20 08:07:17 51°9.126 2°36.072 4.3 341 7.9 100330 78
2004-04-20 08:07:21 51°9.124 2°36.066 4 343 7.9 100330 78
2004-04-20 08:07:27 51°9.121 2°36.057 3.9 346 7.9 100330 78
2004-04-20 08:07:32 51°9.118 2°36.05 3.9 348 7.9 100330 78
2004-04-20 08:07:37 51°9.116 2°36.043 3.5 347 7.9 100330 78
2004-04-20 08:07:42 51°9.113 2°36.037 3.4 345 7.9 100330 78
2004-04-20 08:07:47 51°9.11 2°36.03 3.6 348 7.9 100330 78
2004-04-20 08:07:52 51°9.108 2°36.024 3.3 346 7.9 100330 78
2004-04-20 08:07:57 51°9.105 2°36.017 3.2 346 7.9 100330 78
2004-04-20 08:08:01 51°9.103 2°36.012 3.2 346 7.9 100330 77
2004-04-20 08:08:06 51°9.1 2°36.006 3.2 344 7.9 100330 77
2004-04-20 08:08:12 51°9.097 2°35.998 3.5 347 7.9 100330 77
2004-04-20 08:08:17 51°9.095 2°35.992 3.4 346 7.9 100330 77
2004-04-20 08:08:22 51°9.092 2°35.986 3.5 350 7.8 100330 77
2004-04-20 08:08:27 51°9.089 2°35.98 3.7 347 7.8 100330 77
2004-04-20 08:08:32 51°9.087 2°35.973 3.7 341 7.9 100330 77
2004-04-20 08:08:37 51°9.084 2°35.967 3.8 342 7.9 100330 77
2004-04-20 08:08:41 51°9.081 2°35.961 3.8 342 7.9 100330 77
2004-04-20 08:08:47 51°9.078 2°35.953 3.6 341 7.9 100330 77
2004-04-20 08:08:52 51°9.075 2°35.946 3.7 340 7.9 100340 77
2004-04-20 08:08:57 51°9.072 2°35.939 3.9 338 7.9 100340 77
2004-04-20 08:09:02 51°9.069 2°35.931 3.8 340 7.9 100330 77
2004-04-20 08:09:06 51°9.067 2°35.925 3.5 341 7.9 100330 77
2004-04-20 08:09:12 51°9.063 2°35.916 3.5 344 7.9 100330 77
2004-04-20 08:09:17 51°9.06 2°35.908 3.9 343 7.9 100330 77
2004-04-20 08:09:21 51°9.057 2°35.902 4.1 338 7.8 100330 77
2004-04-20 08:09:26 51°9.054 2°35.894 3.8 338 7.8 100330 77
2004-04-20 08:09:32 51°9.051 2°35.884 3.9 340 7.8 100330 77
2004-04-20 08:09:37 51°9.048 2°35.876 3.9 340 7.8 100330 77
2004-04-20 08:09:42 51°9.045 2°35.867 4 339 7.8 100340 77
2004-04-20 08:09:46 51°9.042 2°35.86 4.1 341 7.8 100340 77
2004-04-20 08:09:52 51°9.038 2°35.85 4.1 344 7.8 100340 77
2004-04-20 08:09:57 51°9.035 2°35.841 4.4 339 7.8 100340 77
2004-04-20 08:10:02 51°9.032 2°35.832 2.6 338 7.8 100340 77
2004-04-20 08:10:06 51°9.03 2°35.825 3.9 338 7.8 100340 77
2004-04-20 08:10:12 51°9.026 2°35.814 3.9 337 7.8 100340 77
2004-04-20 08:10:17 51°9.023 2°35.805 3.7 338 7.8 100340 77
2004-04-20 08:10:22 51°9.02 2°35.796 3.8 335 7.8 100340 77
2004-04-20 08:10:26 51°9.018 2°35.789 4 335 7.8 100340 77
2004-04-20 08:10:32 51°9.015 2°35.778 4.1 338 7.8 100340 77
2004-04-20 08:10:37 51°9.012 2°35.768 4.2 338 7.8 100340 77
2004-04-20 08:10:42 51°9.009 2°35.759 4.1 332 7.8 100340 77
2004-04-20 08:10:47 51°9.007 2°35.75 4 336 7.8 100340 77
2004-04-20 08:10:52 51°9.004 2°35.74 4 332 7.8 100340 77
2004-04-20 08:10:56 51°9.002 2°35.733 3.7 334 7.8 100340 77
2004-04-20 08:11:01 51°8.999 2°35.724 4 336 7.8 100340 77
2004-04-20 08:11:07 51°8.996 2°35.712 4.3 338 7.8 100340 77
2004-04-20 08:11:12 51°8.994 2°35.703 4.2 336 7.8 100340 77
2004-04-20 08:11:17 51°8.991 2°35.694 4 335 7.8 100340 77
2004-04-20 08:11:21 51°8.99 2°35.687 3.7 333 7.8 100340 77
2004-04-20 08:11:26 51°8.987 2°35.678 3.6 336 7.8 100340 77
2004-04-20 08:11:32 51°8.985 2°35.668 3.9 335 7.8 100340 77
2004-04-20 08:11:36 51°8.983 2°35.661 3.8 334 7.8 100340 77
2004-04-20 08:11:42 51°8.98 2°35.651 4 332 7.8 100340 77
2004-04-20 08:11:46 51°8.978 2°35.644 3.5 331 7.8 100340 77
2004-04-20 08:11:52 51°8.976 2°35.634 3.9 332 7.8 100340 77
2004-04-20 08:11:57 51°8.974 2°35.625 3.8 333 7.8 100340 77
2004-04-20 08:12:01 51°8.972 2°35.619 3.9 332 7.8 100330 77
2004-04-20 08:12:06 51°8.97 2°35.61 3.5 330 7.8 100330 77
2004-04-20 08:12:12 51°8.968 2°35.601 3.5 330 7.8 100340 77
2004-04-20 08:12:17 51°8.966 2°35.593 3.8 322 7.8 100340 77
2004-04-20 08:12:22 51°8.964 2°35.585 3.5 327 7.8 100340 77
2004-04-20 08:12:27 51°8.962 2°35.577 3.6 325 7.8 100340 77
2004-04-20 08:12:32 51°8.961 2°35.569 3.7 325 7.8 100340 77
2004-04-20 08:12:37 51°8.959 2°35.561 3.4 325 7.8 100340 77
2004-04-20 08:12:41 51°8.958 2°35.555 3.5 324 7.8 100340 77
2004-04-20 08:12:46 51°8.956 2°35.547 3.4 323 7.8 100340 77
2004-04-20 08:12:52 51°8.954 2°35.538 3.6 323 7.8 100340 77
2004-04-20 08:12:57 51°8.952 2°35.53 3.6 323 7.8 100340 77
2004-04-20 08:13:02 51°8.951 2°35.523 3.5 319 7.8 100340 77
2004-04-20 08:13:06 51°8.949 2°35.517 3.4 322 7.8 100340 77
2004-04-20 08:13:12 51°8.947 2°35.508 3.5 319 7.8 100340 77
2004-04-20 08:13:17 51°8.946 2°35.5 3.5 320 7.8 100340 77
2004-04-20 08:13:21 51°8.945 2°35.494 3.4 320 7.8 100340 77
2004-04-20 08:13:26 51°8.943 2°35.487 3.8 320 7.8 100340 77
2004-04-20 08:13:32 51°8.941 2°35.478 3.7 319 7.8 100340 77
2004-04-20 08:13:37 51°8.94 2°35.471 3.6 318 7.8 100340 77
2004-04-20 08:13:42 51°8.938 2°35.464 3.2 315 7.8 100340 77
2004-04-20 08:13:47 51°8.937 2°35.457 2.9 42 7.8 100340 77
2004-04-20 08:13:52 51°8.935 2°35.449 3.2 318 7.8 100340 77
2004-04-20 08:13:57 51°8.933 2°35.442 3.2 323 7.8 100340 77
2004-04-20 08:14:01 51°8.932 2°35.437 3.3 324 7.8 100340 77
2004-04-20 08:14:07 51°8.93 2°35.428 2.9 324 7.8 100340 77
2004-04-20 08:14:12 51°8.929 2°35.421 3 325 7.8 100340 77
2004-04-20 08:14:17 51°8.927 2°35.414 3.2 325 7.8 100340 77
2004-04-20 08:14:22 51°8.925 2°35.407 3.1 324 7.8 100340 77
2004-04-20 08:14:26 51°8.924 2°35.402 3.4 323 7.8 100340 77
2004-04-20 08:14:31 51°8.923 2°35.395 3.2 323 7.8 100340 77
2004-04-20 08:14:37 51°8.921 2°35.387 3.2 323 7.8 100340 77
2004-04-20 08:14:42 51°8.919 2°35.38 3.3 320 7.8 100340 77
2004-04-20 08:14:46 51°8.918 2°35.375 3 319 7.8 100340 77
2004-04-20 08:14:51 51°8.916 2°35.368 3.1 320 7.9 100340 77
2004-04-20 08:14:57 51°8.914 2°35.36 3.3 320 7.9 100340 77
2004-04-20 08:15:02 51°8.912 2°35.353 3.2 320 7.9 100340 77
2004-04-20 08:15:07 51°8.91 2°35.346 3 322 7.9 100340 77
2004-04-20 08:15:12 51°8.909 2°35.34 3.4 319 7.9 100340 77
2004-04-20 08:15:17 51°8.907 2°35.333 3.1 318 7.9 100340 77
2004-04-20 08:15:21 51°8.906 2°35.328 2.8 320 7.9 100340 77
2004-04-20 08:15:26 51°8.904 2°35.321 2.6 324 7.9 100340 77
2004-04-20 08:15:32 51°8.901 2°35.313 2.9 321 7.9 100340 77
2004-04-20 08:15:37 51°8.9 2°35.307 2.6 319 7.9 100340 77
2004-04-20 08:15:41 51°8.898 2°35.301 3 321 7.9 100340 77
2004-04-20 08:15:47 51°8.896 2°35.293 2.7 323 7.9 100340 77
2004-04-20 08:15:52 51°8.894 2°35.287 2.9 318 7.9 100340 77
2004-04-20 08:15:56 51°8.893 2°35.282 3.1 323 7.9 100340 77
2004-04-20 08:16:02 51°8.891 2°35.274 3.2 321 7.9 100340 77
2004-04-20 08:16:06 51°8.889 2°35.269 3.1 317 7.9 100340 77
2004-04-20 08:16:12 51°8.887 2°35.261 3.3 320 7.9 100340 77
2004-04-20 08:16:17 51°8.885 2°35.254 3.2 42 7.9 100340 77
2004-04-20 08:16:22 51°8.883 2°35.248 3.3 318 7.9 100340 77
2004-04-20 08:16:26 51°8.881 2°35.243 3.4 317 7.9 100340 77
2004-04-20 08:16:32 51°8.879 2°35.235 3.5 324 7.9 100340 77
2004-04-20 08:16:37 51°8.877 2°35.228 3.4 322 7.9 100340 77
2004-04-20 08:16:42 51°8.875 2°35.222 3.1 324 7.9 100340 77
2004-04-20 08:16:47 51°8.873 2°35.215 3.2 323 7.9 100340 77
2004-04-20 08:16:51 51°8.871 2°35.21 3.1 324 7.9 100340 77
2004-04-20 08:16:57 51°8.869 2°35.202 3 318 7.9 100340 77
2004-04-20 08:17:01 51°8.867 2°35.197 3.5 318 7.9 100340 77
2004-04-20 08:17:06 51°8.865 2°35.191 3.2 324 7.9 100340 77
2004-04-20 08:17:12 51°8.863 2°35.183 3.3 323 8 100340 77
2004-04-20 08:17:17 51°8.861 2°35.177 3.3 326 8 100340 77
2004-04-20 08:17:22 51°8.859 2°35.17 3.5 324 8 100340 77
2004-04-20 08:17:26 51°8.857 2°35.165 3.5 325 8 100340 77
2004-04-20 08:17:32 51°8.855 2°35.157 3.3 328 8 100340 77
2004-04-20 08:17:37 51°8.853 2°35.151 3.1 330 8 100340 77
2004-04-20 08:17:41 51°8.851 2°35.146 2.9 328 8 100340 77
2004-04-20 08:17:46 51°8.849 2°35.139 3 326 8 100340 77
2004-04-20 08:17:52 51°8.847 2°35.132 3.1 323 8 100340 77
2004-04-20 08:17:57 51°8.844 2°35.125 3.1 323 8 100340 77
2004-04-20 08:18:01 51°8.842 2°35.12 2.9 323 8 100340 77
2004-04-20 08:18:07 51°8.84 2°35.112 3.3 327 8 100340 77
2004-04-20 08:18:12 51°8.838 2°35.106 3.2 327 8 100340 77
2004-04-20 08:18:17 51°8.835 2°35.099 3.1 328 8 100340 77
2004-04-20 08:18:21 51°8.833 2°35.094 3 328 7.9 100340 77
2004-04-20 08:18:26 51°8.831 2°35.088 2.9 331 7.9 100340 77
2004-04-20 08:18:32 51°8.828 2°35.08 2.9 330 8 100340 77
2004-04-20 08:18:37 51°8.826 2°35.073 2.8 329 8 100340 77
2004-04-20 08:18:42 51°8.824 2°35.067 3.1 337 8 100340 77
2004-04-20 08:18:47 51°8.822 2°35.06 3.2 333 8 100340 77
2004-04-20 08:18:52 51°8.819 2°35.054 3.3 331 8 100340 77
2004-04-20 08:18:57 51°8.817 2°35.047 3.3 332 8 100340 77
2004-04-20 08:19:01 51°8.815 2°35.042 3.3 333 8 100340 77
2004-04-20 08:19:07 51°8.812 2°35.034 3.2 332 8 100340 77
2004-04-20 08:19:12 51°8.81 2°35.028 3.3 332 8 100340 77
2004-04-20 08:19:17 51°8.808 2°35.021 3.3 332 8 100340 77
2004-04-20 08:19:21 51°8.806 2°35.016 3.2 334 8 100340 77
2004-04-20 08:19:27 51°8.804 2°35.008 3.3 332 8 100340 77
2004-04-20 08:19:31 51°8.802 2°35.003 3.3 333 8 100340 77
2004-04-20 08:19:37 51°8.799 2°34.995 3 332 8 100340 77
2004-04-20 08:19:42 51°8.797 2°34.989 3 333 8 100340 77
2004-04-20 08:19:47 51°8.795 2°34.982 2.7 336 8 100340 77
2004-04-20 08:19:52 51°8.792 2°34.976 2.8 332 8 100340 77
2004-04-20 08:19:57 51°8.79 2°34.969 2.9 326 8 100340 77
2004-04-20 08:20:01 51°8.788 2°34.964 3 324 8 100340 77
2004-04-20 08:20:07 51°8.785 2°34.956 2.8 332 8 100340 77
2004-04-20 08:20:12 51°8.783 2°34.95 2.7 329 8 100340 77